createdAt,value
2019-01-02T00:00:12.739Z,6.20
2019-01-02T00:01:12.698Z,6.22
2019-01-02T00:02:12.673Z,6.10
2019-01-02T00:03:12.649Z,6.12
2019-01-02T00:04:12.622Z,6.17
2019-01-02T00:05:12.598Z,6.12
2019-01-02T00:06:12.570Z,6.22
2019-01-02T00:07:12.563Z,6.15
2019-01-02T00:08:12.527Z,6.16
2019-01-02T00:09:12.503Z,6.15
2019-01-02T00:10:12.473Z,6.20
2019-01-02T00:11:12.444Z,6.13
2019-01-02T00:12:12.421Z,6.07
2019-01-02T00:13:12.394Z,6.16
2019-01-02T00:14:12.387Z,6.20
2019-01-02T00:15:12.343Z,6.19
2019-01-02T00:16:12.319Z,6.15
2019-01-02T00:17:12.297Z,6.20
2019-01-02T00:18:12.268Z,6.09
2019-01-02T00:19:12.245Z,6.17
2019-01-02T00:20:12.216Z,6.13
2019-01-02T00:21:12.213Z,6.15
2019-01-02T00:22:12.169Z,6.13
2019-01-02T00:23:12.141Z,6.12
2019-01-02T00:24:12.119Z,6.12
2019-01-02T00:25:12.090Z,6.19
2019-01-02T00:26:12.064Z,6.15
2019-01-02T00:27:12.040Z,6.16
2019-01-02T00:28:12.016Z,6.19
2019-01-02T00:29:11.999Z,6.13
2019-01-02T00:30:11.981Z,6.19
2019-01-02T00:31:11.940Z,6.22
2019-01-02T00:32:11.928Z,6.16
2019-01-02T00:33:11.892Z,6.16
2019-01-02T00:34:11.865Z,6.16
2019-01-02T00:35:11.842Z,6.19
2019-01-02T00:36:11.815Z,6.17
2019-01-02T00:37:11.791Z,6.17
2019-01-02T00:38:11.763Z,6.15
2019-01-02T00:39:11.741Z,6.31
2019-01-02T00:40:11.716Z,6.15
2019-01-02T00:41:11.687Z,6.13
2019-01-02T00:42:11.663Z,6.20
2019-01-02T00:43:11.641Z,6.22
2019-01-02T00:44:11.610Z,6.19
2019-01-02T00:45:11.593Z,6.15
2019-01-02T00:46:11.566Z,6.15
2019-01-02T00:47:11.536Z,6.16
2019-01-02T00:48:11.512Z,6.02
2019-01-02T00:49:11.485Z,6.07
2019-01-02T00:50:11.466Z,5.98
2019-01-02T00:51:11.436Z,6.01
2019-01-02T00:52:11.411Z,6.05
2019-01-02T00:53:11.386Z,6.05
2019-01-02T00:54:11.359Z,5.98
2019-01-02T00:55:11.338Z,6.02
2019-01-02T00:56:11.318Z,6.01
2019-01-02T00:57:11.285Z,6.05
2019-01-02T00:58:11.260Z,5.98
2019-01-02T00:59:11.242Z,6.07
2019-01-02T01:00:11.211Z,6.01
2019-01-02T01:01:11.190Z,6.05
2019-01-02T01:02:11.156Z,6.13
2019-01-02T01:03:11.129Z,6.07
2019-01-02T01:04:11.108Z,6.15
2019-01-02T01:05:11.088Z,6.15
2019-01-02T01:06:11.057Z,6.12
2019-01-02T01:07:11.075Z,6.16
2019-01-02T01:08:11.005Z,6.15
2019-01-02T01:09:10.983Z,6.16
2019-01-02T01:10:10.955Z,6.15
2019-01-02T01:11:10.932Z,6.19
2019-01-02T01:12:10.910Z,6.19
2019-01-02T01:13:10.878Z,6.16
2019-01-02T01:14:10.852Z,6.06
2019-01-02T01:15:10.827Z,6.17
2019-01-02T01:16:10.801Z,6.16
2019-01-02T01:17:10.779Z,6.16
2019-01-02T01:18:10.754Z,6.16
2019-01-02T01:19:10.726Z,6.22
2019-01-02T01:20:10.702Z,6.26
2019-01-02T01:21:10.678Z,6.35
2019-01-02T01:22:10.729Z,6.22
2019-01-02T01:23:10.626Z,6.25
2019-01-02T01:24:10.705Z,6.22
2019-01-02T01:25:10.578Z,6.16
2019-01-02T01:26:10.555Z,6.19
2019-01-02T01:27:10.525Z,6.26
2019-01-02T01:28:10.510Z,6.17
2019-01-02T01:29:10.477Z,6.15
2019-01-02T01:30:10.447Z,6.15
2019-01-02T01:31:10.423Z,6.16
2019-01-02T01:32:10.401Z,6.16
2019-01-02T01:33:10.375Z,6.15
2019-01-02T01:34:10.347Z,6.07
2019-01-02T01:35:10.322Z,6.07
2019-01-02T01:36:10.297Z,6.02
2019-01-02T01:37:10.271Z,6.01
2019-01-02T01:38:10.244Z,6.05
2019-01-02T01:39:10.225Z,5.99
2019-01-02T01:40:10.194Z,5.99
2019-01-02T01:41:10.171Z,5.99
2019-01-02T01:42:10.160Z,6.06
2019-01-02T01:43:10.119Z,6.05
2019-01-02T01:44:10.097Z,6.01
2019-01-02T01:45:10.070Z,6.02
2019-01-02T01:46:10.044Z,6.02
2019-01-02T01:47:10.019Z,6.09
2019-01-02T01:48:09.997Z,6.06
2019-01-02T01:49:09.968Z,6.10
2019-01-02T01:50:10.010Z,6.13
2019-01-02T01:51:09.918Z,6.06
2019-01-02T01:52:09.891Z,6.17
2019-01-02T01:53:09.870Z,6.17
2019-01-02T01:54:09.843Z,6.15
2019-01-02T01:55:09.820Z,6.17
2019-01-02T01:56:09.792Z,6.19
2019-01-02T01:57:09.764Z,6.13
2019-01-02T01:58:09.745Z,5.97
2019-01-02T01:59:09.715Z,5.91
2019-01-02T02:00:09.690Z,5.92
2019-01-02T02:01:09.681Z,5.90
2019-01-02T02:02:09.639Z,5.77
2019-01-02T02:03:09.616Z,5.79
2019-01-02T02:04:09.590Z,5.81
2019-01-02T02:05:09.564Z,5.79
2019-01-02T02:06:09.539Z,5.73
2019-01-02T02:07:09.513Z,5.67
2019-01-02T02:08:09.493Z,5.70
2019-01-02T02:09:09.462Z,5.73
2019-01-02T02:10:09.437Z,5.79
2019-01-02T02:11:09.410Z,5.67
2019-01-02T02:12:09.386Z,5.73
2019-01-02T02:13:09.363Z,5.65
2019-01-02T02:14:09.335Z,5.73
2019-01-02T02:15:09.310Z,5.67
2019-01-02T02:16:09.284Z,5.69
2019-01-02T02:17:09.261Z,5.69
2019-01-02T02:18:09.232Z,5.65
2019-01-02T02:19:09.206Z,5.69
2019-01-02T02:20:09.185Z,5.64
2019-01-02T02:21:09.157Z,5.72
2019-01-02T02:22:09.135Z,5.74
2019-01-02T02:23:09.108Z,5.72
2019-01-02T02:24:09.090Z,5.80
2019-01-02T02:25:09.054Z,5.77
2019-01-02T02:26:09.029Z,5.87
2019-01-02T02:27:09.005Z,5.79
2019-01-02T02:28:08.982Z,5.84
2019-01-02T02:29:08.958Z,5.91
2019-01-02T02:30:08.981Z,5.92
2019-01-02T02:31:08.906Z,5.94
2019-01-02T02:32:08.877Z,5.88
2019-01-02T02:33:08.851Z,5.92
2019-01-02T02:34:08.825Z,5.95
2019-01-02T02:35:08.800Z,5.90
2019-01-02T02:36:08.780Z,5.97
2019-01-02T02:37:08.749Z,5.97
2019-01-02T02:38:08.723Z,5.99
2019-01-02T02:39:08.699Z,6.05
2019-01-02T02:40:08.675Z,5.98
2019-01-02T02:41:08.650Z,6.02
2019-01-02T02:42:08.623Z,5.98
2019-01-02T02:43:08.599Z,6.01
2019-01-02T02:44:08.573Z,6.02
2019-01-02T02:45:08.554Z,6.12
2019-01-02T02:46:08.522Z,6.10
2019-01-02T02:47:08.497Z,6.07
2019-01-02T02:48:08.475Z,6.05
2019-01-02T02:49:08.449Z,6.05
2019-01-02T02:50:08.423Z,6.05
2019-01-02T02:51:08.397Z,6.07
2019-01-02T02:52:08.376Z,6.17
2019-01-02T02:53:08.346Z,6.19
2019-01-02T02:54:08.319Z,6.10
2019-01-02T02:55:08.295Z,6.13
2019-01-02T02:56:08.269Z,6.12
2019-01-02T02:57:08.259Z,6.15
2019-01-02T02:58:08.228Z,6.13
2019-01-02T02:59:08.193Z,6.10
2019-01-02T03:00:08.173Z,6.16
2019-01-02T03:01:08.147Z,6.19
2019-01-02T03:02:08.119Z,6.16
2019-01-02T03:03:08.093Z,6.16
2019-01-02T03:04:08.075Z,6.15
2019-01-02T03:05:08.044Z,6.16
2019-01-02T03:06:08.017Z,6.25
2019-01-02T03:07:07.992Z,6.12
2019-01-02T03:08:07.968Z,6.17
2019-01-02T03:09:07.942Z,6.15
2019-01-02T03:10:07.917Z,6.22
2019-01-02T03:11:07.905Z,6.19
2019-01-02T03:12:07.866Z,6.17
2019-01-02T03:13:07.841Z,6.16
2019-01-02T03:14:07.819Z,6.20
2019-01-02T03:15:07.790Z,6.25
2019-01-02T03:16:07.765Z,6.19
2019-01-02T03:17:07.742Z,6.17
2019-01-02T03:18:07.714Z,6.25
2019-01-02T03:19:07.698Z,6.20
2019-01-02T03:20:07.664Z,6.20
2019-01-02T03:21:07.641Z,6.19
2019-01-02T03:22:07.617Z,6.29
2019-01-02T03:23:07.588Z,6.29
2019-01-02T03:24:07.565Z,6.26
2019-01-02T03:25:07.539Z,6.32
2019-01-02T03:26:07.515Z,6.26
2019-01-02T03:27:07.491Z,6.20
2019-01-02T03:28:07.464Z,6.31
2019-01-02T03:29:07.440Z,6.28
2019-01-02T03:30:07.414Z,6.35
2019-01-02T03:31:07.388Z,6.26
2019-01-02T03:32:07.365Z,6.26
2019-01-02T03:33:07.338Z,6.29
2019-01-02T03:34:07.314Z,6.32
2019-01-02T03:35:07.288Z,6.35
2019-01-02T03:36:07.263Z,6.32
2019-01-02T03:37:07.242Z,6.32
2019-01-02T03:38:07.213Z,6.32
2019-01-02T03:39:07.189Z,6.32
2019-01-02T03:40:07.163Z,6.36
2019-01-02T03:41:07.138Z,6.36
2019-01-02T03:42:07.113Z,6.34
2019-01-02T03:43:07.088Z,6.36
2019-01-02T03:44:07.065Z,6.39
2019-01-02T03:45:07.042Z,6.36
2019-01-02T03:46:07.013Z,6.32
2019-01-02T03:47:06.988Z,6.29
2019-01-02T03:48:06.965Z,6.31
2019-01-02T03:49:06.940Z,6.28
2019-01-02T03:50:06.912Z,6.36
2019-01-02T03:51:06.892Z,6.32
2019-01-02T03:52:06.863Z,6.29
2019-01-02T03:53:06.837Z,6.29
2019-01-02T03:54:06.815Z,6.25
2019-01-02T03:55:06.790Z,6.32
2019-01-02T03:56:06.764Z,6.34
2019-01-02T03:57:06.742Z,6.35
2019-01-02T03:58:06.712Z,6.35
2019-01-02T03:59:06.688Z,6.36
2019-01-02T04:00:06.676Z,6.34
2019-01-02T04:01:06.639Z,6.35
2019-01-02T04:02:06.619Z,6.39
2019-01-02T04:03:06.588Z,6.49
2019-01-02T04:04:06.566Z,6.41
2019-01-02T04:05:06.538Z,6.38
2019-01-02T04:06:06.518Z,6.36
2019-01-02T04:07:06.487Z,6.32
2019-01-02T04:08:06.470Z,6.41
2019-01-02T04:09:06.440Z,6.43
2019-01-02T04:10:06.413Z,6.44
2019-01-02T04:11:06.391Z,6.44
2019-01-02T04:12:06.365Z,6.50
2019-01-02T04:13:06.339Z,6.50
2019-01-02T04:14:06.317Z,6.44
2019-01-02T04:15:06.297Z,6.46
2019-01-02T04:16:06.273Z,6.49
2019-01-02T04:17:06.239Z,6.39
2019-01-02T04:18:06.213Z,6.49
2019-01-02T04:19:06.190Z,6.49
2019-01-02T04:20:06.163Z,6.44
2019-01-02T04:21:06.140Z,6.54
2019-01-02T04:22:06.114Z,6.47
2019-01-02T04:23:06.091Z,6.49
2019-01-02T04:24:06.065Z,6.54
2019-01-02T04:25:06.041Z,6.57
2019-01-02T04:26:06.016Z,6.56
2019-01-02T04:27:05.991Z,6.52
2019-01-02T04:28:05.965Z,6.53
2019-01-02T04:29:05.939Z,6.56
2019-01-02T04:30:05.913Z,6.59
2019-01-02T04:31:05.891Z,6.57
2019-01-02T04:32:05.865Z,6.65
2019-01-02T04:33:05.843Z,6.50
2019-01-02T04:34:05.815Z,6.52
2019-01-02T04:35:05.793Z,6.59
2019-01-02T04:36:05.768Z,6.59
2019-01-02T04:37:05.742Z,6.59
2019-01-02T04:38:05.718Z,6.59
2019-01-02T04:39:05.692Z,6.60
2019-01-02T04:40:05.666Z,6.60
2019-01-02T04:41:05.654Z,6.65
2019-01-02T04:42:05.621Z,6.67
2019-01-02T04:43:05.593Z,6.60
2019-01-02T04:44:05.568Z,6.74
2019-01-02T04:45:05.542Z,6.70
2019-01-02T04:46:05.520Z,6.67
2019-01-02T04:47:05.492Z,6.74
2019-01-02T04:48:05.471Z,6.72
2019-01-02T04:49:05.443Z,6.72
2019-01-02T04:50:05.421Z,6.70
2019-01-02T04:51:05.399Z,6.64
2019-01-02T04:52:05.369Z,6.68
2019-01-02T04:53:05.344Z,6.71
2019-01-02T04:54:05.317Z,6.70
2019-01-02T04:55:05.294Z,6.71
2019-01-02T04:56:05.271Z,6.67
2019-01-02T04:57:05.245Z,6.65
2019-01-02T04:58:05.222Z,6.65
2019-01-02T04:59:05.197Z,6.62
2019-01-02T05:00:05.171Z,6.67
2019-01-02T05:01:05.148Z,6.65
2019-01-02T05:02:05.124Z,6.72
2019-01-02T05:03:05.100Z,6.64
2019-01-02T05:04:05.071Z,6.72
2019-01-02T05:05:05.045Z,6.75
2019-01-02T05:06:05.021Z,6.72
2019-01-02T05:07:04.996Z,6.74
2019-01-02T05:08:04.975Z,6.75
2019-01-02T05:09:05.141Z,6.72
2019-01-02T05:10:04.923Z,6.77
2019-01-02T05:11:04.901Z,6.77
2019-01-02T05:12:04.873Z,6.82
2019-01-02T05:13:04.873Z,6.77
2019-01-02T05:14:04.821Z,6.77
2019-01-02T05:15:04.801Z,6.72
2019-01-02T05:16:04.773Z,6.78
2019-01-02T05:17:04.750Z,6.78
2019-01-02T05:18:04.724Z,6.82
2019-01-02T05:19:04.698Z,6.82
2019-01-02T05:20:04.673Z,6.74
2019-01-02T05:21:04.648Z,6.78
2019-01-02T05:22:04.625Z,6.77
2019-01-02T05:23:04.602Z,6.74
2019-01-02T05:24:04.572Z,6.75
2019-01-02T05:25:04.603Z,6.78
2019-01-02T05:26:04.525Z,6.77
2019-01-02T05:27:04.499Z,6.74
2019-01-02T05:28:04.474Z,6.72
2019-01-02T05:29:04.450Z,6.72
2019-01-02T05:30:04.428Z,6.74
2019-01-02T05:31:04.400Z,6.72
2019-01-02T05:32:04.376Z,6.74
2019-01-02T05:33:04.370Z,6.71
2019-01-02T05:34:04.323Z,6.67
2019-01-02T05:35:04.303Z,6.67
2019-01-02T05:36:04.275Z,6.68
2019-01-02T05:37:04.250Z,6.62
2019-01-02T05:38:04.233Z,6.67
2019-01-02T05:39:04.212Z,6.65
2019-01-02T05:40:04.175Z,6.68
2019-01-02T05:41:04.150Z,6.56
2019-01-02T05:42:04.128Z,6.67
2019-01-02T05:43:04.099Z,6.71
2019-01-02T05:44:04.075Z,6.67
2019-01-02T05:45:04.094Z,6.62
2019-01-02T05:46:04.025Z,6.62
2019-01-02T05:47:04.002Z,6.60
2019-01-02T05:48:03.974Z,6.72
2019-01-02T05:49:03.954Z,6.67
2019-01-02T05:50:03.925Z,6.59
2019-01-02T05:51:03.900Z,6.56
2019-01-02T05:52:03.881Z,6.57
2019-01-02T05:53:03.849Z,6.59
2019-01-02T05:54:03.835Z,6.54
2019-01-02T05:55:03.798Z,6.52
2019-01-02T05:56:03.776Z,6.39
2019-01-02T05:57:03.751Z,6.35
2019-01-02T05:58:03.723Z,6.39
2019-01-02T05:59:03.702Z,6.43
2019-01-02T06:00:03.678Z,6.34
2019-01-02T06:01:03.695Z,6.28
2019-01-02T06:02:03.624Z,6.36
2019-01-02T06:03:03.599Z,6.28
2019-01-02T06:04:03.574Z,6.20
2019-01-02T06:05:03.549Z,6.22
2019-01-02T06:06:03.528Z,6.15
2019-01-02T06:07:03.499Z,6.15
2019-01-02T06:08:03.478Z,6.17
2019-01-02T06:09:03.453Z,6.20
2019-01-02T06:10:03.427Z,6.12
2019-01-02T06:11:03.400Z,6.15
2019-01-02T06:12:03.379Z,6.13
2019-01-02T06:13:03.348Z,6.17
2019-01-02T06:14:03.330Z,6.07
2019-01-02T06:15:03.320Z,6.12
2019-01-02T06:16:03.323Z,6.02
2019-01-02T06:17:03.248Z,6.02
2019-01-02T06:18:03.228Z,6.06
2019-01-02T06:19:03.248Z,5.97
2019-01-02T06:20:03.171Z,6.02
2019-01-02T06:21:03.150Z,5.99
2019-01-02T06:22:03.174Z,5.84
2019-01-02T06:23:03.104Z,6.02
2019-01-02T06:24:03.070Z,5.95
2019-01-02T06:25:03.045Z,6.05
2019-01-02T06:26:03.024Z,5.99
2019-01-02T06:27:03.059Z,6.07
2019-01-02T06:28:02.971Z,6.07
2019-01-02T06:29:02.945Z,6.09
2019-01-02T06:30:02.920Z,6.02
2019-01-02T06:31:02.918Z,6.05
2019-01-02T06:32:02.867Z,6.05
2019-01-02T06:33:02.846Z,6.05
2019-01-02T06:34:02.843Z,6.15
2019-01-02T06:35:02.797Z,6.05
2019-01-02T06:36:02.777Z,6.10
2019-01-02T06:37:02.746Z,6.05
2019-01-02T06:38:02.722Z,6.07
2019-01-02T06:39:02.695Z,6.02
2019-01-02T06:40:02.681Z,6.05
2019-01-02T06:41:02.641Z,6.07
2019-01-02T06:42:02.617Z,6.09
2019-01-02T06:43:02.596Z,6.07
2019-01-02T06:44:02.580Z,6.12
2019-01-02T06:45:02.543Z,6.07
2019-01-02T06:46:02.516Z,6.09
2019-01-02T06:47:02.532Z,6.09
2019-01-02T06:48:02.473Z,6.12
2019-01-02T06:49:02.443Z,6.07
2019-01-02T06:50:02.419Z,6.05
2019-01-02T06:51:02.393Z,6.12
2019-01-02T06:52:02.375Z,6.05
2019-01-02T06:53:02.340Z,6.05
2019-01-02T06:54:02.315Z,6.15
2019-01-02T06:55:02.293Z,6.05
2019-01-02T06:56:02.278Z,6.13
2019-01-02T06:57:02.243Z,6.02
2019-01-02T06:58:02.215Z,6.09
2019-01-02T06:59:02.213Z,6.13
2019-01-02T07:00:02.165Z,6.09
2019-01-02T07:01:02.144Z,5.99
2019-01-02T07:02:02.115Z,5.98
2019-01-02T07:03:02.092Z,6.02
2019-01-02T07:04:02.063Z,5.90
2019-01-02T07:05:02.039Z,5.87
2019-01-02T07:06:02.015Z,5.94
2019-01-02T07:07:01.988Z,5.94
2019-01-02T07:08:01.963Z,5.87
2019-01-02T07:09:01.950Z,5.90
2019-01-02T07:10:01.913Z,5.81
2019-01-02T07:11:01.890Z,5.90
2019-01-02T07:12:01.862Z,5.77
2019-01-02T07:13:01.839Z,5.79
2019-01-02T07:14:01.814Z,5.81
2019-01-02T07:15:01.838Z,5.80
2019-01-02T07:16:01.773Z,5.64
2019-01-02T07:17:01.736Z,5.69
2019-01-02T07:18:01.712Z,5.67
2019-01-02T07:19:01.684Z,5.73
2019-01-02T07:20:01.662Z,5.67
2019-01-02T07:21:01.637Z,5.67
2019-01-02T07:22:01.613Z,5.65
2019-01-02T07:23:01.585Z,5.65
2019-01-02T07:24:01.558Z,5.64
2019-01-02T07:25:01.534Z,5.61
2019-01-02T07:26:01.514Z,5.52
2019-01-02T07:27:01.482Z,5.56
2019-01-02T07:28:01.463Z,5.55
2019-01-02T07:29:01.433Z,5.56
2019-01-02T07:30:01.410Z,5.58
2019-01-02T07:31:01.383Z,5.64
2019-01-02T07:32:01.355Z,5.69
2019-01-02T07:33:01.332Z,5.72
2019-01-02T07:34:01.306Z,5.65
2019-01-02T07:35:01.281Z,5.67
2019-01-02T07:36:01.256Z,5.73
2019-01-02T07:37:01.290Z,5.72
2019-01-02T07:38:01.205Z,5.73
2019-01-02T07:39:01.191Z,5.67
2019-01-02T07:40:01.233Z,5.70
2019-01-02T07:41:01.129Z,5.70
2019-01-02T07:42:01.100Z,5.65
2019-01-02T07:43:01.080Z,5.72
2019-01-02T07:44:01.051Z,5.74
2019-01-02T07:45:01.029Z,5.65
2019-01-02T07:46:00.998Z,5.73
2019-01-02T07:47:00.977Z,5.76
2019-01-02T07:48:00.948Z,5.79
2019-01-02T07:49:00.921Z,5.79
2019-01-02T07:50:00.903Z,5.74
2019-01-02T07:51:00.872Z,5.79
2019-01-02T07:52:00.848Z,5.74
2019-01-02T07:53:00.821Z,5.65
2019-01-02T07:54:00.798Z,5.70
2019-01-02T07:55:01.015Z,5.73
2019-01-02T07:56:00.755Z,5.67
2019-01-02T07:57:00.718Z,5.67
2019-01-02T07:58:00.693Z,5.64
2019-01-02T07:59:00.670Z,5.64
2019-01-02T08:00:00.642Z,5.74
2019-01-02T08:01:00.616Z,5.76
2019-01-02T08:02:00.593Z,5.79
2019-01-02T08:03:00.564Z,5.80
2019-01-02T08:04:00.541Z,5.79
2019-01-02T08:05:00.517Z,5.79
2019-01-02T08:06:00.489Z,5.77
2019-01-02T08:07:00.465Z,5.84
2019-01-02T08:08:00.438Z,5.87
2019-01-02T08:09:00.413Z,5.87
2019-01-02T08:10:00.438Z,5.92
2019-01-02T08:11:00.362Z,5.88
2019-01-02T08:12:00.337Z,5.90
2019-01-02T08:13:00.311Z,5.88
2019-01-02T08:14:00.293Z,5.84
2019-01-02T08:15:03.271Z,5.91
2019-01-02T08:16:00.237Z,5.83
2019-01-02T08:17:00.209Z,5.88
2019-01-02T08:18:00.183Z,5.92
2019-01-02T08:19:00.161Z,5.81
2019-01-02T08:20:00.151Z,5.98
2019-01-02T08:21:00.108Z,5.90
2019-01-02T08:22:00.088Z,5.97
2019-01-02T08:23:00.056Z,6.01
2019-01-02T08:24:00.037Z,5.98
2019-01-02T08:25:00.007Z,5.98
2019-01-02T08:25:59.980Z,6.02
2019-01-02T08:26:59.956Z,6.01
2019-01-02T08:27:59.930Z,6.10
2019-01-02T08:28:59.908Z,6.16
2019-01-02T08:29:59.879Z,6.05
2019-01-02T08:30:59.859Z,6.12
2019-01-02T08:31:59.829Z,6.12
2019-01-02T08:32:59.811Z,6.10
2019-01-02T08:33:59.778Z,6.09
2019-01-02T08:34:59.753Z,6.16
2019-01-02T08:35:59.729Z,6.20
2019-01-02T08:36:59.702Z,6.19
2019-01-02T08:37:59.692Z,6.17
2019-01-02T08:38:59.651Z,6.16
2019-01-02T08:39:59.626Z,6.10
2019-01-02T08:40:59.603Z,6.15
2019-01-02T08:41:59.579Z,6.12
2019-01-02T08:42:59.551Z,6.17
2019-01-02T08:43:59.525Z,6.16
2019-01-02T08:44:59.501Z,6.13
2019-01-02T08:45:59.477Z,6.17
2019-01-02T08:46:59.452Z,6.32
2019-01-02T08:47:59.427Z,6.25
2019-01-02T08:48:59.403Z,6.19
2019-01-02T08:49:59.373Z,6.25
2019-01-02T08:50:59.356Z,6.22
2019-01-02T08:51:59.328Z,6.25
2019-01-02T08:52:59.302Z,6.29
2019-01-02T08:53:59.275Z,6.25
2019-01-02T08:54:59.248Z,6.29
2019-01-02T08:55:59.225Z,6.29
2019-01-02T08:56:59.201Z,6.28
2019-01-02T08:57:59.171Z,6.16
2019-01-02T08:58:59.150Z,6.13
2019-01-02T08:59:59.127Z,6.16
2019-01-02T09:00:59.101Z,6.19
2019-01-02T09:01:59.072Z,6.19
2019-01-02T09:02:59.051Z,6.19
2019-01-02T09:03:59.023Z,6.16
2019-01-02T09:04:59.000Z,6.15
2019-01-02T09:05:58.975Z,6.12
2019-01-02T09:06:58.950Z,6.12
2019-01-02T09:07:58.922Z,6.16
2019-01-02T09:08:58.897Z,6.17
2019-01-02T09:09:58.871Z,6.17
2019-01-02T09:10:58.852Z,6.10
2019-01-02T09:11:58.821Z,6.13
2019-01-02T09:12:58.796Z,6.13
2019-01-02T09:13:58.771Z,6.12
2019-01-02T09:14:58.752Z,6.13
2019-01-02T09:15:58.724Z,6.09
2019-01-02T09:16:58.697Z,6.12
2019-01-02T09:17:58.669Z,6.12
2019-01-02T09:18:58.647Z,6.10
2019-01-02T09:19:58.619Z,6.12
2019-01-02T09:20:58.597Z,6.12
2019-01-02T09:21:58.569Z,6.13
2019-01-02T09:22:58.545Z,6.12
2019-01-02T09:23:58.519Z,6.13
2019-01-02T09:24:58.495Z,6.15
2019-01-02T09:25:58.469Z,6.12
2019-01-02T09:26:58.446Z,6.13
2019-01-02T09:27:58.418Z,6.20
2019-01-02T09:28:58.392Z,6.09
2019-01-02T09:29:58.369Z,6.15
2019-01-02T09:30:58.344Z,6.20
2019-01-02T09:31:58.316Z,6.22
2019-01-02T09:32:58.294Z,6.25
2019-01-02T09:33:58.269Z,6.16
2019-01-02T09:34:58.244Z,6.16
2019-01-02T09:35:58.220Z,6.09
2019-01-02T09:36:58.192Z,6.16
2019-01-02T09:37:58.169Z,6.22
2019-01-02T09:38:58.143Z,6.12
2019-01-02T09:39:58.116Z,6.13
2019-01-02T09:40:58.095Z,6.17
2019-01-02T09:41:58.066Z,6.26
2019-01-02T09:42:58.046Z,6.25
2019-01-02T09:43:58.015Z,6.19
2019-01-02T09:44:57.989Z,6.25
2019-01-02T09:45:57.964Z,6.31
2019-01-02T09:46:57.946Z,6.29
2019-01-02T09:47:57.998Z,6.41
2019-01-02T09:48:57.892Z,6.32
2019-01-02T09:49:57.863Z,6.38
2019-01-02T09:50:57.842Z,6.52
2019-01-02T09:51:57.817Z,6.54
2019-01-02T09:52:57.792Z,6.54
2019-01-02T09:53:57.857Z,6.57
2019-01-02T09:55:01.402Z,6.59
2019-01-02T09:55:57.718Z,6.65
2019-01-02T09:56:57.690Z,6.65
2019-01-02T09:57:57.666Z,6.60
2019-01-02T09:58:57.649Z,6.71
2019-01-02T09:59:57.620Z,6.72
2019-01-02T10:00:57.593Z,6.71
2019-01-02T10:01:57.565Z,6.78
2019-01-02T10:02:57.544Z,6.75
2019-01-02T10:03:57.514Z,6.75
2019-01-02T10:04:57.849Z,6.80
2019-01-02T10:05:57.468Z,6.74
2019-01-02T10:06:57.442Z,6.80
2019-01-02T10:07:57.622Z,6.78
2019-01-02T10:08:57.393Z,6.80
2019-01-02T10:09:57.368Z,6.86
2019-01-02T10:10:57.347Z,6.83
2019-01-02T10:11:57.327Z,6.85
2019-01-02T10:12:57.295Z,6.83
2019-01-02T10:13:57.331Z,6.85
2019-01-02T10:14:57.243Z,6.82
2019-01-02T10:15:57.219Z,6.82
2019-01-02T10:16:57.194Z,6.95
2019-01-02T10:17:57.173Z,6.80
2019-01-02T10:18:57.143Z,6.95
2019-01-02T10:19:57.120Z,6.82
2019-01-02T10:20:57.094Z,6.90
2019-01-02T10:21:57.073Z,6.82
2019-01-02T10:22:57.045Z,6.83
2019-01-02T10:23:57.033Z,6.93
2019-01-02T10:24:57.057Z,6.82
2019-01-02T10:25:56.979Z,6.95
2019-01-02T10:26:56.951Z,6.92
2019-01-02T10:27:56.922Z,6.92
2019-01-02T10:28:56.942Z,6.95
2019-01-02T10:29:56.869Z,6.95
2019-01-02T10:30:56.902Z,6.92
2019-01-02T10:31:56.824Z,6.95
2019-01-02T10:32:57.120Z,6.92
2019-01-02T10:33:56.890Z,6.93
2019-01-02T10:34:56.768Z,6.96
2019-01-02T10:35:56.724Z,6.92
2019-01-02T10:36:56.699Z,6.97
2019-01-02T10:37:56.686Z,7.10
2019-01-02T10:38:56.650Z,7.15
2019-01-02T10:39:56.625Z,7.22
2019-01-02T10:40:56.610Z,7.21
2019-01-02T10:41:56.580Z,7.21
2019-01-02T10:42:56.550Z,7.22
2019-01-02T10:43:56.579Z,7.26
2019-01-02T10:44:56.500Z,7.26
2019-01-02T10:45:56.476Z,7.22
2019-01-02T10:46:56.454Z,7.23
2019-01-02T10:47:56.434Z,7.29
2019-01-02T10:48:56.583Z,7.22
2019-01-02T10:49:56.556Z,7.31
2019-01-02T10:50:56.439Z,7.36
2019-01-02T10:51:56.330Z,7.33
2019-01-02T10:52:56.310Z,7.32
2019-01-02T10:53:56.280Z,7.32
2019-01-02T10:54:56.255Z,7.40
2019-01-02T10:55:56.268Z,7.43
2019-01-02T10:56:56.214Z,7.41
2019-01-02T10:57:56.199Z,7.39
2019-01-02T10:58:56.158Z,7.40
2019-01-02T10:59:56.135Z,7.47
2019-01-02T11:00:56.112Z,7.46
2019-01-02T11:01:56.086Z,7.53
2019-01-02T11:02:56.063Z,7.56
2019-01-02T11:03:56.037Z,7.66
2019-01-02T11:04:56.012Z,7.56
2019-01-02T11:05:56.043Z,7.67
2019-01-02T11:06:55.962Z,7.62
2019-01-02T11:07:55.942Z,7.47
2019-01-02T11:08:55.986Z,7.50
2019-01-02T11:09:55.889Z,7.56
2019-01-02T11:10:55.866Z,7.62
2019-01-02T11:11:55.841Z,7.56
2019-01-02T11:12:55.822Z,7.58
2019-01-02T11:13:55.790Z,7.55
2019-01-02T11:14:55.768Z,7.56
2019-01-02T11:15:55.743Z,7.51
2019-01-02T11:16:55.729Z,7.50
2019-01-02T11:17:55.695Z,7.47
2019-01-02T11:18:55.669Z,7.48
2019-01-02T11:19:55.648Z,7.50
2019-01-02T11:20:55.624Z,7.48
2019-01-02T11:21:55.599Z,7.48
2019-01-02T11:22:55.573Z,7.51
2019-01-02T11:23:55.555Z,7.48
2019-01-02T11:24:55.526Z,7.51
2019-01-02T11:25:55.501Z,7.51
2019-01-02T11:26:55.475Z,7.51
2019-01-02T11:27:55.454Z,7.47
2019-01-02T11:28:55.430Z,7.48
2019-01-02T11:29:55.424Z,7.51
2019-01-02T11:30:55.379Z,7.48
2019-01-02T11:31:55.361Z,7.47
2019-01-02T11:32:55.333Z,7.58
2019-01-02T11:33:55.307Z,7.62
2019-01-02T11:34:55.283Z,7.67
2019-01-02T11:35:55.258Z,7.69
2019-01-02T11:36:55.238Z,7.66
2019-01-02T11:37:55.226Z,7.78
2019-01-02T11:38:55.187Z,7.72
2019-01-02T11:39:55.163Z,7.70
2019-01-02T11:40:55.138Z,7.62
2019-01-02T11:41:55.115Z,7.66
2019-01-02T11:42:55.093Z,7.70
2019-01-02T11:43:55.064Z,7.69
2019-01-02T11:44:55.040Z,7.59
2019-01-02T11:45:55.016Z,7.59
2019-01-02T11:46:54.991Z,7.48
2019-01-02T11:47:54.971Z,7.46
2019-01-02T11:48:54.944Z,7.43
2019-01-02T11:49:54.923Z,7.47
2019-01-02T11:50:54.895Z,7.44
2019-01-02T11:51:54.872Z,7.46
2019-01-02T11:52:54.850Z,7.44
2019-01-02T11:53:54.822Z,7.39
2019-01-02T11:54:54.808Z,7.41
2019-01-02T11:55:54.774Z,7.39
2019-01-02T11:56:54.750Z,7.41
2019-01-02T11:57:54.726Z,7.44
2019-01-02T11:58:54.702Z,7.36
2019-01-02T11:59:54.721Z,7.39
2019-01-02T12:00:54.654Z,7.36
2019-01-02T12:01:54.628Z,7.37
2019-01-02T12:02:54.606Z,7.33
2019-01-02T12:03:54.590Z,7.31
2019-01-02T12:04:54.557Z,7.33
2019-01-02T12:05:54.532Z,7.31
2019-01-02T12:06:54.507Z,7.37
2019-01-02T12:07:54.482Z,7.39
2019-01-02T12:08:54.459Z,7.28
2019-01-02T12:09:54.438Z,7.37
2019-01-02T12:10:54.414Z,7.40
2019-01-02T12:11:54.389Z,7.51
2019-01-02T12:12:54.361Z,7.50
2019-01-02T12:13:54.344Z,7.47
2019-01-02T12:14:54.314Z,7.51
2019-01-02T12:15:54.315Z,7.47
2019-01-02T12:16:54.267Z,7.53
2019-01-02T12:17:54.240Z,7.48
2019-01-02T12:18:54.280Z,7.48
2019-01-02T12:19:54.191Z,7.46
2019-01-02T12:20:54.169Z,7.55
2019-01-02T12:21:54.143Z,7.72
2019-01-02T12:22:54.120Z,7.77
2019-01-02T12:23:54.102Z,7.80
2019-01-02T12:24:54.071Z,7.80
2019-01-02T12:25:54.062Z,7.75
2019-01-02T12:26:54.022Z,7.74
2019-01-02T12:27:54.001Z,7.67
2019-01-02T12:28:53.984Z,7.61
2019-01-02T12:29:53.950Z,7.56
2019-01-02T12:30:53.933Z,7.56
2019-01-02T12:31:53.909Z,7.59
2019-01-02T12:32:53.879Z,7.48
2019-01-02T12:33:53.859Z,7.46
2019-01-02T12:34:53.829Z,7.46
2019-01-02T12:35:53.815Z,7.44
2019-01-02T12:36:53.786Z,7.44
2019-01-02T12:37:53.831Z,7.39
2019-01-02T12:38:53.733Z,7.44
2019-01-02T12:39:53.708Z,7.41
2019-01-02T12:40:53.685Z,7.46
2019-01-02T12:41:53.660Z,7.41
2019-01-02T12:42:53.636Z,7.36
2019-01-02T12:43:53.611Z,7.36
2019-01-02T12:44:53.590Z,7.41
2019-01-02T12:45:53.562Z,7.32
2019-01-02T12:46:53.543Z,7.39
2019-01-02T12:47:53.518Z,7.37
2019-01-02T12:48:53.501Z,7.26
2019-01-02T12:49:53.468Z,7.36
2019-01-02T12:50:53.442Z,7.31
2019-01-02T12:51:53.469Z,7.31
2019-01-02T12:52:53.395Z,7.26
2019-01-02T12:53:53.368Z,7.32
2019-01-02T12:54:53.357Z,7.28
2019-01-02T12:55:53.322Z,7.29
2019-01-02T12:56:53.327Z,7.29
2019-01-02T12:57:53.271Z,7.25
2019-01-02T12:58:53.252Z,7.33
2019-01-02T12:59:53.224Z,7.29
2019-01-02T13:00:53.205Z,7.25
2019-01-02T13:01:53.172Z,7.23
2019-01-02T13:02:53.150Z,7.26
2019-01-02T13:03:53.126Z,7.23
2019-01-02T13:04:53.102Z,7.26
2019-01-02T13:05:53.089Z,7.25
2019-01-02T13:06:53.058Z,7.28
2019-01-02T13:07:53.054Z,7.23
2019-01-02T13:08:53.012Z,7.26
2019-01-02T13:09:52.978Z,7.29
2019-01-02T13:10:52.955Z,7.26
2019-01-02T13:11:52.930Z,7.26
2019-01-02T13:12:52.909Z,7.33
2019-01-02T13:13:52.885Z,7.26
2019-01-02T13:14:52.856Z,7.26
2019-01-02T13:15:52.832Z,7.26
2019-01-02T13:16:52.836Z,7.28
2019-01-02T13:17:52.811Z,7.18